Time;durP1;ratioP1;P1;durP2;ratioP2;P2;SDS_P1;SDS_P2;PMS_P1;PMS_P2;Temp;Humidity;BMP_temperature;BMP_pressure;BME280_temperature;BME280_humidity;BME280_pressure;Samples;Min_cycle;Max_cycle;Signal;HPM_P1;HPM_P2
2022/06/09 00:00:03;;;;;;;5.10;1.30;;;;;;;;;;508580;29;1763;-80
2022/06/09 00:00:20;;;;;;;3.80;1.30;;;;;;;;;;508578;29;1603;-81
2022/06/09 00:00:35;;;;;;;4.15;1.30;;;;;;;;;;509061;29;1418;-81
2022/06/09 00:00:58;;;;;;;5.55;1.38;;;;;;;;;;510701;29;1495;-80
2022/06/09 00:01:59;;;;;;;5.93;1.58;;;;;;;;;;509348;29;1716;-80
2022/06/09 00:02:14;;;;;;;3.47;1.50;;;;;;;;;;515351;28;1603;-80
2022/06/09 00:02:30;;;;;;;3.45;1.50;;;;;;;;;;515916;28;1486;-80
2022/06/09 00:02:50;;;;;;;3.43;1.43;;;;;;;;;;515968;28;1840;-80
2022/06/09 00:03:12;;;;;;;3.28;1.33;;;;;;;;;;516852;28;1451;-80
2022/06/09 00:03:35;;;;;;;4.45;1.30;;;;;;;;;;515266;28;2069;-81
2022/06/09 00:04:14;;;;;;;4.15;1.48;;;;;;;;;;512702;28;1724;-81
2022/06/09 00:04:34;;;;;;;4.07;1.50;;;;;;;;;;515298;28;1385;-80
2022/06/09 00:04:49;;;;;;;5.03;1.42;;;;;;;;;;512846;28;1365;-81
2022/06/09 00:05:07;;;;;;;4.78;1.50;;;;;;;;;;513445;28;1328;-80
2022/06/09 00:05:22;;;;;;;4.97;1.48;;;;;;;;;;513454;28;1783;-80
2022/06/09 00:05:39;;;;;;;4.20;1.40;;;;;;;;;;514100;28;1286;-80
2022/06/09 00:05:54;;;;;;;3.47;1.40;;;;;;;;;;512230;28;1436;-82
2022/06/09 00:06:11;;;;;;;3.65;1.40;;;;;;;;;;512025;28;1578;-81
2022/06/09 00:06:41;;;;;;;4.05;1.40;;;;;;;;;;512863;28;1523;-79
2022/06/09 00:07:08;;;;;;;5.10;1.50;;;;;;;;;;510774;28;1482;-80
2022/06/09 00:07:25;;;;;;;3.65;1.33;;;;;;;;;;511430;28;1452;-80
2022/06/09 00:07:43;;;;;;;6.70;1.48;;;;;;;;;;510965;29;1686;-81
2022/06/09 00:08:03;;;;;;;6.13;1.50;;;;;;;;;;512371;28;1642;-81
2022/06/09 00:08:19;;;;;;;4.25;1.38;;;;;;;;;;513315;28;1405;-81
2022/06/09 00:08:37;;;;;;;5.15;1.48;;;;;;;;;;511623;28;1717;-81
2022/06/09 00:08:53;;;;;;;4.72;1.58;;;;;;;;;;512270;28;1716;-81
2022/06/09 00:09:08;;;;;;;4.00;1.50;;;;;;;;;;513671;28;1614;-80
2022/06/09 00:09:31;;;;;;;4.63;1.50;;;;;;;;;;511250;29;2127;-81
2022/06/09 00:09:55;;;;;;;4.40;1.50;;;;;;;;;;512410;28;1482;-81
2022/06/09 00:10:15;;;;;;;5.22;1.63;;;;;;;;;;510684;28;1605;-81
2022/06/09 00:10:44;;;;;;;5.43;1.50;;;;;;;;;;512404;28;1703;-81
2022/06/09 00:11:03;;;;;;;5.30;1.50;;;;;;;;;;512991;28;1443;-81
2022/06/09 00:11:22;;;;;;;3.95;1.58;;;;;;;;;;514864;28;1511;-80
2022/06/09 00:11:40;;;;;;;4.05;1.40;;;;;;;;;;515269;28;1566;-80
2022/06/09 00:11:57;;;;;;;3.17;1.25;;;;;;;;;;513072;28;1484;-81
2022/06/09 00:12:12;;;;;;;3.20;1.40;;;;;;;;;;513761;28;1399;-81
2022/06/09 00:12:30;;;;;;;4.80;1.50;;;;;;;;;;513047;28;1524;-81
2022/06/09 00:12:45;;;;;;;4.43;1.60;;;;;;;;;;513683;28;1293;-81
2022/06/09 00:13:00;;;;;;;4.90;1.60;;;;;;;;;;513679;28;1604;-81
2022/06/09 00:13:16;;;;;;;5.15;1.48;;;;;;;;;;512766;28;1524;-81
2022/06/09 00:13:33;;;;;;;4.53;1.60;;;;;;;;;;513116;28;1970;-80
2022/06/09 00:13:49;;;;;;;5.00;1.67;;;;;;;;;;513612;28;1636;-81
2022/06/09 00:14:07;;;;;;;3.80;1.50;;;;;;;;;;513631;28;1724;-81
2022/06/09 00:14:23;;;;;;;4.55;1.48;;;;;;;;;;514917;28;1539;-80
2022/06/09 00:14:38;;;;;;;6.15;1.70;;;;;;;;;;514793;28;1565;-80
2022/06/09 00:14:56;;;;;;;6.00;1.70;;;;;;;;;;513428;28;1454;-81
2022/06/09 00:15:13;;;;;;;5.20;1.70;;;;;;;;;;513954;28;1392;-81
2022/06/09 00:15:29;;;;;;;3.35;1.60;;;;;;;;;;512889;28;1460;-81
2022/06/09 00:15:45;;;;;;;3.83;1.75;;;;;;;;;;510640;29;1766;-80
2022/06/09 00:16:01;;;;;;;5.07;1.77;;;;;;;;;;510512;29;1634;-81
2022/06/09 00:16:16;;;;;;;4.47;1.55;;;;;;;;;;511939;28;2003;-81
2022/06/09 00:16:32;;;;;;;4.17;1.70;;;;;;;;;;512897;28;1731;-81
2022/06/09 00:16:48;;;;;;;4.40;1.70;;;;;;;;;;514438;28;1986;-80
2022/06/09 00:17:05;;;;;;;5.00;1.67;;;;;;;;;;515829;28;1610;-80
2022/06/09 00:17:20;;;;;;;3.88;1.60;;;;;;;;;;513960;28;1425;-81
2022/06/09 00:17:37;;;;;;;3.50;1.70;;;;;;;;;;516876;28;1535;-81
2022/06/09 00:17:52;;;;;;;4.22;1.73;;;;;;;;;;516768;28;1462;-81
2022/06/09 00:18:07;;;;;;;6.47;1.80;;;;;;;;;;513610;28;1731;-81
2022/06/09 00:18:23;;;;;;;7.32;1.85;;;;;;;;;;513359;28;1314;-81
2022/06/09 00:18:38;;;;;;;5.50;1.60;;;;;;;;;;511267;28;1661;-81
2022/06/09 00:18:54;;;;;;;5.50;1.67;;;;;;;;;;511925;28;1414;-80
2022/06/09 00:19:10;;;;;;;5.68;1.88;;;;;;;;;;511704;28;1698;-81
2022/06/09 00:19:25;;;;;;;4.78;1.73;;;;;;;;;;511365;29;1455;-81
2022/06/09 00:19:41;;;;;;;5.13;1.50;;;;;;;;;;513420;28;1622;-81
2022/06/09 00:19:57;;;;;;;4.60;1.53;;;;;;;;;;513500;28;1495;-81
2022/06/09 00:20:13;;;;;;;6.20;1.88;;;;;;;;;;515539;28;1429;-81
2022/06/09 00:20:29;;;;;;;7.00;1.88;;;;;;;;;;513509;28;1571;-81
2022/06/09 00:20:44;;;;;;;6.93;1.70;;;;;;;;;;513786;28;1484;-80
2022/06/09 00:21:01;;;;;;;5.83;1.67;;;;;;;;;;513247;28;1591;-79
2022/06/09 00:21:16;;;;;;;4.95;1.63;;;;;;;;;;513418;28;1608;-81
2022/06/09 00:21:33;;;;;;;4.80;1.60;;;;;;;;;;515827;28;1522;-79
2022/06/09 00:21:48;;;;;;;4.65;1.60;;;;;;;;;;517239;28;1769;-80
2022/06/09 00:22:04;;;;;;;4.90;1.60;;;;;;;;;;517135;28;2028;-81
2022/06/09 00:22:19;;;;;;;4.68;1.70;;;;;;;;;;517350;28;1290;-81
2022/06/09 00:22:35;;;;;;;3.13;1.67;;;;;;;;;;517279;28;1454;-80
2022/06/09 00:22:50;;;;;;;3.47;1.63;;;;;;;;;;517054;28;1597;-81
2022/06/09 00:23:06;;;;;;;5.90;1.80;;;;;;;;;;517134;28;1360;-81
2022/06/09 00:23:21;;;;;;;5.43;1.70;;;;;;;;;;514798;28;1566;-81
2022/06/09 00:23:37;;;;;;;4.63;1.70;;;;;;;;;;515290;28;1721;-80
2022/06/09 00:23:52;;;;;;;4.80;1.80;;;;;;;;;;514078;28;1796;-81
2022/06/09 00:24:08;;;;;;;4.60;1.70;;;;;;;;;;513577;28;1388;-81
2022/06/09 00:24:24;;;;;;;3.97;1.67;;;;;;;;;;513118;28;1505;-81
2022/06/09 00:24:39;;;;;;;4.35;1.70;;;;;;;;;;512378;28;1686;-81
2022/06/09 00:24:54;;;;;;;5.93;1.70;;;;;;;;;;512254;28;1642;-80
2022/06/09 00:25:10;;;;;;;6.13;1.77;;;;;;;;;;512528;28;1461;-81
2022/06/09 00:25:26;;;;;;;6.07;1.70;;;;;;;;;;513845;28;1570;-81
2022/06/09 00:25:41;;;;;;;6.55;1.73;;;;;;;;;;514881;28;1392;-81
2022/06/09 00:25:56;;;;;;;4.87;1.67;;;;;;;;;;514856;28;1605;-81
2022/06/09 00:26:12;;;;;;;4.15;1.70;;;;;;;;;;514879;28;1434;-80
2022/06/09 00:26:29;;;;;;;3.83;1.70;;;;;;;;;;512821;28;1298;-80
2022/06/09 00:26:44;;;;;;;3.30;1.63;;;;;;;;;;512814;28;1727;-81
2022/06/09 00:27:00;;;;;;;3.43;1.50;;;;;;;;;;512919;28;1812;-81
2022/06/09 00:27:15;;;;;;;3.78;1.60;;;;;;;;;;513463;28;1480;-81
2022/06/09 00:27:30;;;;;;;6.97;1.80;;;;;;;;;;514764;28;1559;-81
2022/06/09 00:27:46;;;;;;;6.35;1.75;;;;;;;;;;515114;28;1546;-80
2022/06/09 00:28:02;;;;;;;3.90;1.70;;;;;;;;;;515093;28;1777;-81
2022/06/09 00:28:18;;;;;;;4.63;1.85;;;;;;;;;;515253;28;1764;-80
2022/06/09 00:28:34;;;;;;;4.15;1.88;;;;;;;;;;515063;28;1965;-80
2022/06/09 00:28:50;;;;;;;4.38;1.75;;;;;;;;;;515174;28;1569;-81
2022/06/09 00:29:05;;;;;;;4.55;1.67;;;;;;;;;;512871;28;1610;-81
2022/06/09 00:29:20;;;;;;;5.80;1.80;;;;;;;;;;512751;28;1726;-80
2022/06/09 00:29:36;;;;;;;7.05;1.90;;;;;;;;;;510927;28;1477;-80
2022/06/09 00:29:51;;;;;;;6.70;1.70;;;;;;;;;;511824;28;1442;-80
2022/06/09 00:30:09;;;;;;;5.57;1.70;;;;;;;;;;513207;28;1350;-81
2022/06/09 00:30:25;;;;;;;5.00;1.80;;;;;;;;;;513041;28;1797;-81
2022/06/09 00:30:41;;;;;;;5.30;1.75;;;;;;;;;;512973;28;1968;-80
2022/06/09 00:30:56;;;;;;;5.05;1.70;;;;;;;;;;513729;28;1339;-81
2022/06/09 00:31:11;;;;;;;5.67;1.70;;;;;;;;;;513186;28;1623;-81
2022/06/09 00:31:27;;;;;;;5.13;1.50;;;;;;;;;;514114;28;1420;-82
2022/06/09 00:31:42;;;;;;;4.13;1.60;;;;;;;;;;515553;28;1531;-81
2022/06/09 00:31:58;;;;;;;4.23;1.70;;;;;;;;;;515362;28;1456;-81
2022/06/09 00:32:13;;;;;;;5.10;1.70;;;;;;;;;;513344;28;1669;-80
2022/06/09 00:32:29;;;;;;;4.93;1.70;;;;;;;;;;513098;28;1569;-81
2022/06/09 00:32:45;;;;;;;4.13;1.60;;;;;;;;;;512552;28;1515;-81
2022/06/09 00:33:00;;;;;;;4.30;1.70;;;;;;;;;;513060;28;1537;-80
2022/06/09 00:33:16;;;;;;;4.73;1.70;;;;;;;;;;513211;28;1528;-81
2022/06/09 00:33:31;;;;;;;4.77;1.70;;;;;;;;;;515319;28;1969;-80
2022/06/09 00:33:47;;;;;;;4.97;1.73;;;;;;;;;;514967;28;1793;-80
2022/06/09 00:34:02;;;;;;;4.70;1.87;;;;;;;;;;514179;28;1699;-80
2022/06/09 00:34:18;;;;;;;4.83;1.83;;;;;;;;;;512467;28;1683;-81
2022/06/09 00:34:33;;;;;;;5.82;1.73;;;;;;;;;;513025;28;1509;-80
2022/06/09 00:34:49;;;;;;;5.43;1.70;;;;;;;;;;512706;28;1569;-80
2022/06/09 00:35:04;;;;;;;6.00;1.70;;;;;;;;;;513254;28;1801;-81
2022/06/09 00:35:21;;;;;;;5.32;1.65;;;;;;;;;;514147;28;1914;-80
2022/06/09 00:35:36;;;;;;;3.90;1.70;;;;;;;;;;513341;28;1761;-81
2022/06/09 00:35:52;;;;;;;3.53;1.50;;;;;;;;;;513523;28;1417;-81
2022/06/09 00:36:07;;;;;;;4.63;1.50;;;;;;;;;;515433;28;1637;-81
2022/06/09 00:36:23;;;;;;;6.03;1.70;;;;;;;;;;517044;28;1501;-81
2022/06/09 00:36:38;;;;;;;6.22;1.83;;;;;;;;;;514908;28;2208;-81
2022/06/09 00:36:54;;;;;;;4.73;1.73;;;;;;;;;;514986;28;1599;-81
2022/06/09 00:37:09;;;;;;;3.63;1.50;;;;;;;;;;515443;28;1316;-81
2022/06/09 00:37:24;;;;;;;3.97;1.53;;;;;;;;;;515415;28;1586;-81
2022/06/09 00:37:40;;;;;;;3.87;1.60;;;;;;;;;;517317;28;2123;-81
2022/06/09 00:37:56;;;;;;;3.65;1.60;;;;;;;;;;517669;28;1491;-81
2022/06/09 00:38:11;;;;;;;2.78;1.55;;;;;;;;;;517260;28;1754;-81
2022/06/09 00:38:27;;;;;;;2.73;1.53;;;;;;;;;;517279;28;1632;-81
2022/06/09 00:38:42;;;;;;;3.80;1.70;;;;;;;;;;516746;28;1405;-81
2022/06/09 00:38:58;;;;;;;4.57;1.73;;;;;;;;;;517159;28;1695;-80
2022/06/09 00:39:13;;;;;;;5.27;1.60;;;;;;;;;;517134;28;1384;-81
2022/06/09 00:39:29;;;;;;;5.07;1.65;;;;;;;;;;516708;28;1746;-81
2022/06/09 00:39:44;;;;;;;3.90;1.50;;;;;;;;;;515748;28;1383;-81
2022/06/09 00:40:00;;;;;;;5.03;1.47;;;;;;;;;;515325;28;1733;-80
2022/06/09 00:40:16;;;;;;;5.60;1.70;;;;;;;;;;517242;28;1539;-81
2022/06/09 00:40:32;;;;;;;4.43;1.80;;;;;;;;;;514487;28;1590;-81
2022/06/09 00:40:48;;;;;;;3.85;1.60;;;;;;;;;;514977;28;1752;-81
2022/06/09 00:41:03;;;;;;;3.25;1.60;;;;;;;;;;515217;28;1516;-80
2022/06/09 00:41:19;;;;;;;3.90;1.67;;;;;;;;;;517262;28;1376;-81
2022/06/09 00:41:39;;;;;;;5.10;1.73;;;;;;;;;;515057;28;1474;-80
2022/06/09 00:41:56;;;;;;;4.72;1.50;;;;;;;;;;515212;28;1569;-81
2022/06/09 00:42:12;;;;;;;3.28;1.30;;;;;;;;;;515276;28;1795;-80
2022/06/09 00:42:27;;;;;;;3.15;1.40;;;;;;;;;;516643;28;1446;-81
2022/06/09 00:42:43;;;;;;;3.72;1.50;;;;;;;;;;515198;28;1472;-81
2022/06/09 00:43:00;;;;;;;6.27;1.70;;;;;;;;;;516687;28;1620;-81
2022/06/09 00:43:15;;;;;;;5.55;1.63;;;;;;;;;;515351;28;1545;-80
2022/06/09 00:43:32;;;;;;;4.27;1.50;;;;;;;;;;515273;28;1529;-81
2022/06/09 00:43:47;;;;;;;4.75;1.55;;;;;;;;;;515180;28;1463;-80
2022/06/09 00:44:21;;;;;;;3.87;1.50;;;;;;;;;;515323;28;1630;-81
2022/06/09 00:44:37;;;;;;;5.43;1.63;;;;;;;;;;513915;28;1412;-80
2022/06/09 00:44:53;;;;;;;5.30;1.80;;;;;;;;;;516404;28;1498;-81
2022/06/09 00:45:22;;;;;;;4.90;1.70;;;;;;;;;;517952;28;1491;-81
2022/06/09 00:45:55;;;;;;;5.82;1.70;;;;;;;;;;518662;28;1773;-80
2022/06/09 00:46:11;;;;;;;5.35;1.70;;;;;;;;;;516354;28;1758;-81
2022/06/09 00:46:28;;;;;;;4.60;1.70;;;;;;;;;;514690;28;1442;-81
2022/06/09 00:46:46;;;;;;;4.65;1.73;;;;;;;;;;513740;28;1451;-80
2022/06/09 00:47:23;;;;;;;4.18;1.73;;;;;;;;;;511708;28;1610;-81
2022/06/09 00:47:39;;;;;;;5.13;1.60;;;;;;;;;;512073;28;1790;-81
2022/06/09 00:48:14;;;;;;;4.22;1.60;;;;;;;;;;512032;28;1544;-81
2022/06/09 00:48:50;;;;;;;5.57;1.70;;;;;;;;;;516848;28;1433;-80
2022/06/09 00:49:21;;;;;;;5.32;1.60;;;;;;;;;;508675;29;1456;-80
2022/06/09 00:49:52;;;;;;;6.70;1.88;;;;;;;;;;518312;28;1575;-81
2022/06/09 00:50:16;;;;;;;5.50;1.70;;;;;;;;;;516683;28;1455;-81
2022/06/09 00:50:36;;;;;;;4.75;1.70;;;;;;;;;;516602;28;1639;-81
2022/06/09 00:51:00;;;;;;;3.75;1.58;;;;;;;;;;516448;28;1250;-81
2022/06/09 00:51:33;;;;;;;5.07;1.77;;;;;;;;;;516661;28;1428;-80
2022/06/09 00:51:55;;;;;;;3.33;1.63;;;;;;;;;;516513;28;1362;-80
2022/06/09 00:52:15;;;;;;;3.03;1.60;;;;;;;;;;516569;28;1654;-80
2022/06/09 00:52:36;;;;;;;4.75;1.60;;;;;;;;;;514736;28;1456;-81
2022/06/09 00:52:56;;;;;;;8.15;1.90;;;;;;;;;;514606;28;1959;-80
2022/06/09 00:53:23;;;;;;;4.97;1.67;;;;;;;;;;516490;28;1598;-81
2022/06/09 00:53:40;;;;;;;4.43;1.70;;;;;;;;;;517212;28;1382;-81
2022/06/09 00:54:01;;;;;;;4.20;1.80;;;;;;;;;;516917;28;1578;-80
2022/06/09 00:54:24;;;;;;;3.63;1.60;;;;;;;;;;516926;28;1542;-80
2022/06/09 00:54:44;;;;;;;4.22;1.52;;;;;;;;;;519027;28;1900;-81
2022/06/09 00:55:06;;;;;;;5.93;1.70;;;;;;;;;;519626;28;1448;-81
2022/06/09 00:55:26;;;;;;;6.00;1.80;;;;;;;;;;518253;28;1547;-81
2022/06/09 00:55:42;;;;;;;6.05;1.70;;;;;;;;;;516860;28;1706;-81
2022/06/09 00:56:01;;;;;;;4.82;1.50;;;;;;;;;;516770;28;1569;-81
2022/06/09 00:56:17;;;;;;;5.30;1.50;;;;;;;;;;515883;28;1879;-80
2022/06/09 00:56:37;;;;;;;5.38;1.63;;;;;;;;;;514019;28;1420;-81
2022/06/09 00:57:04;;;;;;;5.03;1.63;;;;;;;;;;514063;28;1429;-81
2022/06/09 00:57:24;;;;;;;4.88;1.63;;;;;;;;;;514956;28;1637;-80
2022/06/09 00:57:53;;;;;;;4.07;1.55;;;;;;;;;;518421;28;2130;-81
2022/06/09 00:58:13;;;;;;;5.15;1.70;;;;;;;;;;519089;28;1303;-80
2022/06/09 00:58:32;;;;;;;4.38;1.70;;;;;;;;;;520160;28;1743;-80
2022/06/09 00:58:50;;;;;;;5.43;1.60;;;;;;;;;;520874;28;1277;-81
2022/06/09 00:59:06;;;;;;;4.90;1.70;;;;;;;;;;521235;28;1391;-81
2022/06/09 00:59:26;;;;;;;3.80;1.67;;;;;;;;;;519102;28;1724;-80
2022/06/09 00:59:44;;;;;;;3.55;1.50;;;;;;;;;;517176;28;1908;-80
2022/06/09 01:00:07;;;;;;;3.90;1.40;;;;;;;;;;517253;28;1518;-81
2022/06/09 01:00:27;;;;;;;5.38;1.60;;;;;;;;;;516502;28;1483;-80
2022/06/09 01:00:45;;;;;;;4.32;1.58;;;;;;;;;;517351;28;1653;-81
2022/06/09 01:01:05;;;;;;;4.78;1.70;;;;;;;;;;514963;28;1566;-80
2022/06/09 01:01:21;;;;;;;4.88;1.70;;;;;;;;;;516957;28;1750;-81
2022/06/09 01:01:36;;;;;;;3.50;1.50;;;;;;;;;;517832;28;1506;-80
2022/06/09 01:01:54;;;;;;;3.30;1.50;;;;;;;;;;516613;28;1721;-80
2022/06/09 01:02:12;;;;;;;5.45;1.50;;;;;;;;;;513715;28;1487;-81
2022/06/09 01:02:27;;;;;;;6.43;1.60;;;;;;;;;;512085;28;1770;-81
2022/06/09 01:02:44;;;;;;;5.03;1.80;;;;;;;;;;511859;28;1913;-80
2022/06/09 01:03:00;;;;;;;7.18;1.92;;;;;;;;;;513372;28;1810;-80
2022/06/09 01:03:18;;;;;;;5.88;1.80;;;;;;;;;;514500;28;1533;-80
2022/06/09 01:03:40;;;;;;;4.43;1.70;;;;;;;;;;513184;28;1391;-80
2022/06/09 01:04:05;;;;;;;5.30;1.70;;;;;;;;;;514928;28;2203;-81
2022/06/09 01:04:22;;;;;;;5.20;1.58;;;;;;;;;;517083;28;2111;-80
2022/06/09 01:04:38;;;;;;;5.05;1.52;;;;;;;;;;516995;28;1578;-79
2022/06/09 01:04:54;;;;;;;5.32;1.70;;;;;;;;;;517486;28;1490;-81
2022/06/09 01:05:12;;;;;;;5.15;1.70;;;;;;;;;;519019;28;1645;-80
2022/06/09 01:05:32;;;;;;;3.72;1.60;;;;;;;;;;520291;28;1906;-81
2022/06/09 01:05:49;;;;;;;5.00;1.83;;;;;;;;;;519120;28;1321;-81
2022/06/09 01:06:12;;;;;;;5.05;1.90;;;;;;;;;;519029;28;1502;-80
2022/06/09 01:06:33;;;;;;;5.00;1.80;;;;;;;;;;516926;28;1665;-81
2022/06/09 01:06:54;;;;;;;4.47;1.70;;;;;;;;;;514880;28;1504;-81
2022/06/09 01:07:16;;;;;;;3.60;1.52;;;;;;;;;;515128;28;1503;-80
2022/06/09 01:07:36;;;;;;;4.38;1.75;;;;;;;;;;515040;28;1540;-81
2022/06/09 01:07:54;;;;;;;5.10;1.85;;;;;;;;;;515063;28;1711;-81
2022/06/09 01:08:12;;;;;;;5.20;1.70;;;;;;;;;;516919;28;1317;-80
2022/06/09 01:08:31;;;;;;;4.57;1.60;;;;;;;;;;516640;28;1473;-80
2022/06/09 01:09:02;;;;;;;5.10;1.60;;;;;;;;;;517272;28;1852;-81
2022/06/09 01:09:22;;;;;;;3.58;1.63;;;;;;;;;;516251;28;1467;-81
2022/06/09 01:09:37;;;;;;;3.85;1.52;;;;;;;;;;517110;28;1373;-81
2022/06/09 01:09:53;;;;;;;5.85;1.75;;;;;;;;;;516920;28;1515;-81
2022/06/09 01:10:10;;;;;;;7.07;1.90;;;;;;;;;;517060;28;1407;-81
2022/06/09 01:10:28;;;;;;;4.88;1.80;;;;;;;;;;516582;28;1452;-81
2022/06/09 01:10:43;;;;;;;4.10;1.70;;;;;;;;;;514752;28;1349;-81
2022/06/09 01:10:58;;;;;;;5.20;1.70;;;;;;;;;;512511;28;1567;-81
2022/06/09 01:11:14;;;;;;;5.50;1.70;;;;;;;;;;512878;28;1352;-80
2022/06/09 01:11:29;;;;;;;5.13;1.80;;;;;;;;;;512825;28;1287;-81
2022/06/09 01:11:49;;;;;;;5.43;1.87;;;;;;;;;;511250;29;1778;-81
2022/06/09 01:12:33;;;;;;;6.97;1.80;;;;;;;;;;510604;29;1667;-80
2022/06/09 01:12:49;;;;;;;3.22;1.60;;;;;;;;;;515787;28;1463;-81
2022/06/09 01:13:04;;;;;;;3.05;1.65;;;;;;;;;;515840;28;1783;-81
2022/06/09 01:13:20;;;;;;;4.00;1.70;;;;;;;;;;515319;28;1431;-81
2022/06/09 01:13:36;;;;;;;4.17;1.60;;;;;;;;;;515374;28;2436;-80
2022/06/09 01:13:55;;;;;;;3.92;1.50;;;;;;;;;;514882;28;1535;-81
2022/06/09 01:14:13;;;;;;;5.35;1.70;;;;;;;;;;512992;28;1543;-80
2022/06/09 01:14:32;;;;;;;5.13;1.67;;;;;;;;;;512203;28;1656;-81
2022/06/09 01:14:49;;;;;;;6.72;1.70;;;;;;;;;;512826;28;1696;-81
2022/06/09 01:15:18;;;;;;;7.75;1.80;;;;;;;;;;514112;28;1498;-80
2022/06/09 01:15:50;;;;;;;3.53;1.52;;;;;;;;;;517341;28;1355;-81
2022/06/09 01:16:15;;;;;;;3.47;1.50;;;;;;;;;;518359;28;1327;-81
2022/06/09 01:17:18;;;;;;;3.47;1.58;;;;;;;;;;518838;28;1622;-80
2022/06/09 01:17:45;;;;;;;5.38;1.50;;;;;;;;;;510642;29;1683;-81
2022/06/09 01:18:19;;;;;;;3.70;1.67;;;;;;;;;;509801;29;1418;-80
2022/06/09 01:18:46;;;;;;;6.05;1.80;;;;;;;;;;511334;29;1476;-81
2022/06/09 01:19:20;;;;;;;4.97;1.70;;;;;;;;;;510483;29;1602;-80
2022/06/09 01:19:47;;;;;;;3.78;1.60;;;;;;;;;;513036;28;1488;-81
2022/06/09 01:20:15;;;;;;;5.53;1.65;;;;;;;;;;514727;28;1718;-81
2022/06/09 01:21:22;;;;;;;4.95;1.60;;;;;;;;;;519475;28;1632;-80
2022/06/09 01:21:57;;;;;;;4.60;1.70;;;;;;;;;;515220;28;1460;-81
2022/06/09 01:22:15;;;;;;;4.30;1.63;;;;;;;;;;514639;28;1526;-80
2022/06/09 01:22:55;;;;;;;5.40;1.60;;;;;;;;;;515368;28;1904;-79
2022/06/09 01:23:39;;;;;;;3.17;1.27;;;;;;;;;;517144;28;1552;-80
2022/06/09 01:24:12;;;;;;;4.47;1.70;;;;;;;;;;519265;28;1570;-81
2022/06/09 01:24:37;;;;;;;3.72;1.65;;;;;;;;;;520291;28;1687;-80
2022/06/09 01:25:14;;;;;;;3.50;1.52;;;;;;;;;;519771;28;1785;-81
2022/06/09 01:25:55;;;;;;;3.80;1.55;;;;;;;;;;518784;28;1480;-81
2022/06/09 01:26:36;;;;;;;3.28;1.50;;;;;;;;;;518500;28;1667;-81
2022/06/09 01:26:55;;;;;;;5.72;1.65;;;;;;;;;;518286;28;1722;-81
2022/06/09 01:27:16;;;;;;;5.95;1.50;;;;;;;;;;518620;28;1598;-81
2022/06/09 01:27:56;;;;;;;5.18;1.52;;;;;;;;;;517324;28;1444;-80
2022/06/09 01:28:30;;;;;;;4.40;1.40;;;;;;;;;;518541;28;1486;-81
2022/06/09 01:29:07;;;;;;;4.60;1.50;;;;;;;;;;518868;28;1638;-81
2022/06/09 01:29:43;;;;;;;4.85;1.42;;;;;;;;;;519249;28;1399;-81
2022/06/09 01:30:07;;;;;;;3.28;1.30;;;;;;;;;;518653;28;1508;-80
2022/06/09 01:30:37;;;;;;;3.55;1.48;;;;;;;;;;518874;28;1571;-80
2022/06/09 01:31:00;;;;;;;3.70;1.40;;;;;;;;;;518659;28;1736;-80
2022/06/09 01:31:37;;;;;;;4.18;1.40;;;;;;;;;;518920;28;1481;-81
2022/06/09 01:31:59;;;;;;;3.20;1.40;;;;;;;;;;519540;28;1501;-81
2022/06/09 01:32:23;;;;;;;3.47;1.40;;;;;;;;;;517911;28;1729;-80
2022/06/09 01:32:44;;;;;;;3.88;1.45;;;;;;;;;;515558;28;1607;-81
2022/06/09 01:33:10;;;;;;;4.53;1.50;;;;;;;;;;514215;28;1279;-81
2022/06/09 01:33:36;;;;;;;4.40;1.40;;;;;;;;;;514366;28;1910;-81
2022/06/09 01:34:07;;;;;;;4.25;1.40;;;;;;;;;;515116;28;1452;-80
2022/06/09 01:34:23;;;;;;;4.53;1.30;;;;;;;;;;516975;28;1914;-81
2022/06/09 01:35:06;;;;;;;4.68;1.60;;;;;;;;;;517204;28;1577;-80
2022/06/09 01:35:24;;;;;;;4.18;1.48;;;;;;;;;;519071;28;1331;-81
2022/06/09 01:35:56;;;;;;;4.63;1.45;;;;;;;;;;518871;28;1512;-80
2022/06/09 01:37:19;;;;;;;3.63;1.42;;;;;;;;;;516864;28;1280;-81
2022/06/09 01:37:44;;;;;;;4.25;1.65;;;;;;;;;;510765;28;1497;-81
2022/06/09 01:37:59;;;;;;;5.13;1.50;;;;;;;;;;510821;28;1435;-81
2022/06/09 01:38:15;;;;;;;5.22;1.65;;;;;;;;;;510363;29;1552;-81
2022/06/09 01:38:47;;;;;;;5.13;1.65;;;;;;;;;;510183;29;2111;-81
2022/06/09 01:39:05;;;;;;;5.90;1.88;;;;;;;;;;511036;29;1544;-81
2022/06/09 01:39:28;;;;;;;5.88;1.73;;;;;;;;;;511030;29;1756;-81
2022/06/09 01:39:47;;;;;;;4.85;1.75;;;;;;;;;;510764;29;2127;-81
2022/06/09 01:40:05;;;;;;;4.88;1.67;;;;;;;;;;512537;28;1635;-80
2022/06/09 01:40:21;;;;;;;7.20;1.90;;;;;;;;;;515078;28;1772;-81
2022/06/09 01:40:36;;;;;;;7.47;1.90;;;;;;;;;;513249;28;2513;-81
2022/06/09 01:40:52;;;;;;;6.35;1.73;;;;;;;;;;512585;28;1740;-80
2022/06/09 01:41:07;;;;;;;5.90;1.70;;;;;;;;;;512610;28;1450;-80
2022/06/09 01:41:24;;;;;;;5.67;1.70;;;;;;;;;;512139;28;1543;-79
2022/06/09 01:41:48;;;;;;;4.38;1.50;;;;;;;;;;512254;28;1807;-80
2022/06/09 01:42:19;;;;;;;3.85;1.52;;;;;;;;;;512223;28;1524;-81
2022/06/09 01:42:43;;;;;;;4.60;1.80;;;;;;;;;;511808;28;1477;-80
2022/06/09 01:42:59;;;;;;;3.67;1.88;;;;;;;;;;512362;28;1461;-80
2022/06/09 01:43:14;;;;;;;4.45;1.80;;;;;;;;;;517532;28;1520;-81
2022/06/09 01:43:30;;;;;;;4.65;1.70;;;;;;;;;;516450;28;1412;-81
2022/06/09 01:43:46;;;;;;;5.97;1.70;;;;;;;;;;514433;28;1486;-81
2022/06/09 01:44:03;;;;;;;6.10;1.73;;;;;;;;;;512778;28;1608;-80
2022/06/09 01:44:18;;;;;;;4.63;1.70;;;;;;;;;;512667;28;1848;-80
2022/06/09 01:44:34;;;;;;;4.43;1.52;;;;;;;;;;515039;28;1523;-80
2022/06/09 01:44:53;;;;;;;7.20;1.63;;;;;;;;;;513168;28;1564;-80
2022/06/09 01:45:51;;;;;;;6.38;1.63;;;;;;;;;;513105;28;1525;-80
2022/06/09 01:46:15;;;;;;;4.47;1.65;;;;;;;;;;512432;28;1654;-80
2022/06/09 01:46:33;;;;;;;6.35;1.50;;;;;;;;;;518593;28;1361;-80
2022/06/09 01:46:49;;;;;;;6.80;1.80;;;;;;;;;;519099;28;1739;-80
2022/06/09 01:47:04;;;;;;;5.53;2.00;;;;;;;;;;520824;28;1867;-81
2022/06/09 01:47:22;;;;;;;4.23;1.80;;;;;;;;;;518899;28;1466;-81
2022/06/09 01:47:49;;;;;;;5.35;1.90;;;;;;;;;;519142;28;1459;-81
2022/06/09 01:48:06;;;;;;;3.50;1.70;;;;;;;;;;518980;28;1693;-81
2022/06/09 01:48:24;;;;;;;4.43;1.70;;;;;;;;;;516616;28;1463;-81
2022/06/09 01:48:40;;;;;;;4.28;1.50;;;;;;;;;;514959;28;1467;-81
2022/06/09 01:49:01;;;;;;;4.18;1.60;;;;;;;;;;515349;28;1832;-80
2022/06/09 01:49:24;;;;;;;3.55;1.67;;;;;;;;;;514805;28;1732;-80
2022/06/09 01:49:40;;;;;;;4.55;1.65;;;;;;;;;;514671;28;1431;-81
2022/06/09 01:49:58;;;;;;;3.67;1.50;;;;;;;;;;515095;28;1551;-81
2022/06/09 01:50:24;;;;;;;4.05;1.60;;;;;;;;;;513241;28;1905;-81
2022/06/09 01:50:48;;;;;;;5.05;1.50;;;;;;;;;;516397;28;1533;-80
2022/06/09 01:51:08;;;;;;;5.82;1.70;;;;;;;;;;517235;28;1626;-81
2022/06/09 01:51:26;;;;;;;4.65;1.52;;;;;;;;;;517118;28;1339;-80
2022/06/09 01:51:44;;;;;;;4.95;1.50;;;;;;;;;;517216;28;1688;-81
2022/06/09 01:52:01;;;;;;;5.35;1.85;;;;;;;;;;516408;28;1499;-81
2022/06/09 01:52:18;;;;;;;4.80;1.80;;;;;;;;;;516796;28;1566;-80
2022/06/09 01:52:35;;;;;;;4.25;1.63;;;;;;;;;;518280;28;1617;-80
2022/06/09 01:52:53;;;;;;;5.07;1.80;;;;;;;;;;518963;28;1761;-80
2022/06/09 01:53:20;;;;;;;5.28;1.75;;;;;;;;;;519200;28;1730;-81
2022/06/09 01:53:43;;;;;;;5.13;1.70;;;;;;;;;;518737;28;1914;-80
2022/06/09 01:54:06;;;;;;;6.07;1.80;;;;;;;;;;518795;28;1542;-81
2022/06/09 01:54:30;;;;;;;3.90;1.60;;;;;;;;;;519091;28;1506;-80
2022/06/09 01:54:48;;;;;;;3.53;1.40;;;;;;;;;;518942;28;1717;-81
2022/06/09 01:55:06;;;;;;;4.32;1.40;;;;;;;;;;518922;28;2122;-81
2022/06/09 01:55:23;;;;;;;4.07;1.60;;;;;;;;;;517309;28;1575;-81
2022/06/09 01:55:44;;;;;;;4.38;1.60;;;;;;;;;;516606;28;1756;-80
2022/06/09 01:56:23;;;;;;;5.60;1.70;;;;;;;;;;516738;28;1534;-81
2022/06/09 01:57:00;;;;;;;4.07;1.60;;;;;;;;;;515925;28;1434;-81
2022/06/09 01:57:21;;;;;;;3.85;1.60;;;;;;;;;;517815;28;1757;-81
2022/06/09 01:57:38;;;;;;;4.15;1.58;;;;;;;;;;518291;28;1608;-81
2022/06/09 01:57:57;;;;;;;6.50;1.60;;;;;;;;;;519008;28;1336;-81
2022/06/09 01:58:17;;;;;;;6.15;1.70;;;;;;;;;;518211;28;1401;-80
2022/06/09 01:58:38;;;;;;;5.45;1.60;;;;;;;;;;518071;28;1534;-80
2022/06/09 01:58:58;;;;;;;5.35;1.70;;;;;;;;;;518881;28;1922;-81
2022/06/09 01:59:18;;;;;;;3.67;1.65;;;;;;;;;;517867;28;1729;-81
2022/06/09 01:59:38;;;;;;;4.15;1.80;;;;;;;;;;516292;28;1359;-80
2022/06/09 02:00:16;;;;;;;4.70;1.80;;;;;;;;;;515358;28;1413;-81
2022/06/09 02:00:32;;;;;;;3.63;1.55;;;;;;;;;;517383;28;1610;-80
2022/06/09 02:00:49;;;;;;;4.07;1.55;;;;;;;;;;517968;28;1538;-80
2022/06/09 02:01:05;;;;;;;4.60;1.70;;;;;;;;;;517873;28;1581;-80
2022/06/09 02:01:26;;;;;;;4.65;1.70;;;;;;;;;;518325;28;1522;-80
2022/06/09 02:01:55;;;;;;;5.75;1.80;;;;;;;;;;520601;28;1693;-80
2022/06/09 02:02:16;;;;;;;4.80;1.60;;;;;;;;;;519115;28;1533;-80
2022/06/09 02:02:35;;;;;;;5.28;1.70;;;;;;;;;;518877;28;1512;-80
2022/06/09 02:03:07;;;;;;;5.20;1.70;;;;;;;;;;518518;28;1494;-80
2022/06/09 02:03:28;;;;;;;6.05;1.60;;;;;;;;;;518769;28;1496;-81
2022/06/09 02:03:47;;;;;;;4.97;1.70;;;;;;;;;;518523;28;1525;-80
2022/06/09 02:04:10;;;;;;;6.70;1.70;;;;;;;;;;518766;28;1875;-81
2022/06/09 02:04:43;;;;;;;4.40;1.60;;;;;;;;;;518705;28;1574;-81
2022/06/09 02:05:11;;;;;;;4.45;1.50;;;;;;;;;;516391;28;1531;-80
2022/06/09 02:05:30;;;;;;;7.68;1.80;;;;;;;;;;514313;28;1646;-81
2022/06/09 02:05:49;;;;;;;4.45;1.70;;;;;;;;;;512751;28;1386;-80
2022/06/09 02:06:06;;;;;;;4.35;1.55;;;;;;;;;;514229;28;1665;-80
2022/06/09 02:06:23;;;;;;;4.97;1.63;;;;;;;;;;514976;28;1773;-81
2022/06/09 02:06:40;;;;;;;4.25;1.70;;;;;;;;;;515287;28;1282;-81